Airfield :
LOGIN :

Register | Disclaimer

   EN    FR    IT 

 










Legend :    VFR   Marginal VFR   IFR   Intensive IFR   Very Intensive IFR
Visi :
Ceiling :
>= 8 km
>= 3000ft
5 to 8 km
1000 to 3000 ft
1500m to 5 km
500 to 1000 ft
800 to 1500m
200 to 500 ft
< 800m
< 200 ft
Symbols :   Thunderstorms  Fog  Heavy snow  Heavy precipitations  Wind > 20 kt
SIGMETs :     Misc.  Thunderstorms  Icing  Turbulence  Mountain Waves  Volcanic Ashes







- Airport Elevation : 885 ft
- IATA code : BAS
- Download approach charts


LFSB - Bale-Mulhouse

CURRENT METAR :
  • 232000Z 29006KT 260V320 CAVOK 12/08 Q1012 NOSIG

EXPIRED METARs :
  • 231930Z 33006KT CAVOK 12/08 Q1012 NOSIG
  • 231900Z 35007KT CAVOK 13/08 Q1011 NOSIG
  • 231830Z 35008KT CAVOK 13/08 Q1011 NOSIG
  • 231800Z 36009KT 330V030 9999 FEW040 SCT130 BKN180 14/08 Q1011 NOSIG
  • 231730Z 35009KT 320V020 9999 FEW040 BKN120 BKN190 15/08 Q1010 NOSIG
  • 231700Z 35007KT 9999 FEW040 BKN120 BKN200 15/08 Q1010 NOSIG

TAF TAF LFSB
Valid from the 23 at 18:00 until the 24 at 18:00 UTC


231700Z 2318/2418 30005KT 9999 FEW040 BKN120
BECMG 2319/2321 BKN030
TEMPO 2403/2409 3000 BR
PROB40
TEMPO 2406/2409 BKN010
BECMG 2409/2411 BKN020
Met : +33 3 89 90 31 11
No reported NOTAMs for that airfield.
1 SIGMET reported for the Reims FIR (LFEE) :
 
Embedded thunderstorms
LFEE SIGMET 2 VALID 231800/232000 LFPW
LFEE REIMS FIR/UIR EMBD TS FCST WI N4630 E00600 - N4630 E00445 - N4730 E00415 - N4800 E00500 - N4745 E00600 TOP FL320 MOV N 15KT NC=



MET'MAP, your aeronautical weather chart ! - Copyright ORBIFLY December 2007 - Disclaimer

ORBIFLY MET'MAP TEAM :

Programming & Development : Alexandra Zaïnal
Concept & Development : Baudouin d'Aumeries
Co-Development & Prog : Marc-Olivier Méhu
Technical & hardware support : Manuel Goepfert

Contact : metmap@orbifly.com




SOURCES & CREDITS :

   NOAA